createdAt,value
2018-08-16T00:01:42.066Z,99.90
2018-08-16T00:04:10.643Z,99.90
2018-08-16T00:06:39.241Z,99.90
2018-08-16T00:09:08.436Z,99.90
2018-08-16T00:11:37.322Z,99.90
2018-08-16T00:14:05.886Z,99.90
2018-08-16T00:16:34.499Z,99.90
2018-08-16T00:19:03.118Z,99.90
2018-08-16T00:21:31.698Z,99.90
2018-08-16T00:24:00.337Z,99.90
2018-08-16T00:26:28.958Z,99.90
2018-08-16T00:28:57.544Z,99.90
2018-08-16T00:31:26.157Z,99.90
2018-08-16T00:33:54.805Z,99.90
2018-08-16T00:36:23.355Z,99.90
2018-08-16T00:38:51.910Z,99.90
2018-08-16T00:41:20.477Z,99.90
2018-08-16T00:43:49.001Z,99.90
2018-08-16T00:46:17.615Z,99.90
2018-08-16T00:48:46.150Z,99.90
2018-08-16T00:51:14.713Z,99.90
2018-08-16T00:53:43.251Z,99.90
2018-08-16T00:56:11.877Z,99.90
2018-08-16T00:58:40.450Z,99.90
2018-08-16T01:01:09.038Z,99.90
2018-08-16T01:03:37.574Z,99.90
2018-08-16T01:06:06.149Z,99.90
2018-08-16T01:08:34.720Z,99.90
2018-08-16T05:30:21.400Z,99.90
2018-08-16T05:32:52.576Z,99.90
2018-08-16T05:35:22.961Z,99.90
2018-08-16T05:37:54.041Z,99.90
2018-08-16T05:40:23.837Z,99.90
2018-08-16T05:42:53.503Z,99.90
2018-08-16T05:45:22.442Z,99.90
2018-08-16T05:47:51.082Z,99.90
2018-08-16T05:50:19.641Z,99.90
2018-08-16T05:52:48.217Z,99.90
2018-08-16T05:55:20.484Z,99.90
2018-08-16T05:57:53.818Z,99.90
2018-08-16T06:00:22.387Z,99.90
2018-08-16T06:02:51.021Z,99.90
2018-08-16T06:05:19.573Z,99.90
2018-08-16T06:07:48.205Z,99.90
2018-08-16T06:10:16.873Z,99.90
2018-08-16T06:12:45.462Z,99.90
2018-08-16T06:15:14.038Z,99.90
2018-08-16T06:17:44.737Z,99.90
2018-08-16T06:20:15.395Z,99.90
2018-08-16T06:22:46.373Z,99.90
2018-08-16T06:25:14.949Z,99.90
2018-08-16T06:27:44.236Z,99.90
2018-08-16T06:30:15.950Z,99.90
2018-08-16T06:32:45.983Z,99.90
2018-08-16T06:35:15.244Z,99.90
2018-08-16T06:37:43.912Z,99.90
2018-08-16T06:40:15.172Z,99.90
2018-08-16T06:42:44.458Z,99.90
2018-08-16T06:45:13.074Z,99.90
2018-08-16T06:47:41.702Z,99.90
2018-08-16T06:50:10.398Z,99.90
2018-08-16T06:52:39.048Z,99.90
2018-08-16T06:55:09.633Z,99.90
2018-08-16T06:57:38.849Z,99.90
2018-08-16T07:00:10.026Z,99.90
2018-08-16T07:02:38.634Z,99.90
2018-08-16T07:05:12.005Z,99.90
2018-08-16T07:07:40.957Z,99.90
2018-08-16T07:10:14.230Z,99.90
2018-08-16T07:12:47.033Z,99.90
2018-08-16T07:15:16.316Z,99.90
2018-08-16T07:17:46.646Z,99.90
2018-08-16T07:20:15.276Z,99.90
2018-08-16T07:22:44.490Z,99.90
2018-08-16T07:25:13.018Z,99.90
2018-08-16T07:27:41.549Z,99.90
2018-08-16T07:30:10.586Z,99.90
2018-08-16T07:32:41.010Z,99.90
2018-08-16T07:35:10.396Z,99.90
2018-08-16T07:37:39.022Z,99.90
2018-08-16T07:40:08.342Z,99.90
2018-08-16T07:42:39.147Z,99.90
2018-08-16T07:45:09.874Z,99.90
2018-08-16T07:47:38.657Z,99.90
2018-08-16T07:50:10.493Z,99.90
2018-08-16T07:52:40.028Z,99.90
2018-08-16T07:55:09.263Z,99.90
2018-08-16T07:57:37.889Z,99.90
2018-08-16T08:00:11.440Z,99.90
2018-08-16T08:02:40.059Z,99.90
2018-08-16T08:05:08.662Z,99.90
2018-08-16T08:07:37.184Z,99.90
2018-08-16T08:10:05.817Z,99.90
2018-08-16T08:12:34.407Z,99.90
2018-08-16T08:15:03.046Z,99.90
2018-08-16T08:17:31.688Z,99.90
2018-08-16T08:20:00.302Z,99.90
2018-08-16T08:22:29.878Z,99.90
2018-08-16T08:25:00.040Z,99.90
2018-08-16T08:27:28.629Z,99.90
2018-08-16T08:29:57.325Z,99.90
2018-08-16T08:32:25.941Z,99.90
2018-08-16T08:34:54.660Z,99.90
2018-08-16T08:37:34.765Z,99.90
2018-08-16T08:40:03.371Z,99.90
2018-08-16T08:42:32.271Z,99.90
2018-08-16T08:45:00.866Z,99.90
2018-08-16T08:47:34.649Z,99.90
2018-08-16T08:50:03.256Z,99.90
2018-08-16T08:52:31.870Z,99.90
2018-08-16T08:55:11.642Z,99.90
2018-08-16T08:58:48.561Z,99.90
2018-08-16T09:01:19.152Z,99.90
2018-08-16T09:03:48.691Z,99.90
2018-08-16T09:06:17.221Z,99.90
2018-08-16T09:08:45.970Z,99.90
2018-08-16T09:11:26.054Z,99.90
2018-08-16T09:14:07.095Z,99.90
2018-08-16T09:16:37.771Z,99.90
2018-08-16T09:19:07.308Z,99.90
2018-08-16T09:21:36.373Z,99.90
2018-08-16T09:24:05.229Z,99.90
2018-08-16T09:26:38.926Z,99.90
2018-08-16T09:29:18.654Z,99.90
2018-08-16T09:32:03.093Z,99.90
2018-08-16T09:34:31.766Z,99.90
2018-08-16T09:37:00.349Z,99.90
2018-08-16T09:39:29.089Z,99.90
2018-08-16T09:41:57.578Z,99.90
2018-08-16T09:44:26.306Z,99.90
2018-08-16T09:47:10.857Z,99.90
2018-08-16T09:49:41.685Z,99.90
2018-08-16T09:52:11.523Z,99.90
2018-08-16T09:54:40.130Z,99.90
2018-08-16T09:57:09.902Z,99.90
2018-08-16T09:59:38.638Z,99.90
2018-08-16T10:02:11.488Z,99.90
2018-08-16T10:04:42.044Z,99.60
2018-08-16T10:07:12.665Z,99.70
2018-08-16T10:09:41.305Z,99.90
2018-08-16T10:12:09.923Z,99.90
2018-08-16T10:14:42.688Z,99.60
2018-08-16T10:17:13.189Z,99.60
2018-08-16T10:19:41.773Z,99.30
2018-08-16T10:22:10.349Z,99.30
2018-08-16T10:24:43.634Z,98.80
2018-08-16T10:27:15.506Z,99.10
2018-08-16T10:29:46.874Z,98.80
2018-08-16T10:32:15.894Z,98.60
2018-08-16T10:34:44.425Z,98.70
2018-08-16T10:37:14.193Z,98.70
2018-08-16T10:39:42.678Z,99.10
2018-08-16T10:42:11.233Z,98.40
2018-08-16T10:44:41.033Z,98.20
2018-08-16T10:47:11.218Z,99.00
2018-08-16T10:49:39.794Z,98.80
2018-08-16T10:52:08.458Z,97.90
2018-08-16T10:54:36.973Z,98.00
2018-08-16T10:57:05.899Z,97.70
2018-08-16T10:59:34.563Z,98.00
2018-08-16T11:02:03.169Z,97.60
2018-08-16T11:04:31.728Z,97.20
2018-08-16T11:07:00.501Z,97.30
2018-08-16T11:09:29.014Z,97.30
2018-08-16T11:11:57.564Z,96.20
2018-08-16T11:14:26.058Z,96.50
2018-08-16T11:16:54.590Z,96.80
2018-08-16T11:19:23.119Z,96.20
2018-08-16T11:21:51.670Z,96.30
2018-08-16T11:24:20.174Z,96.60
2018-08-16T11:26:48.729Z,96.60
2018-08-16T11:29:17.289Z,96.20
2018-08-16T11:31:45.873Z,97.10
2018-08-16T11:34:14.389Z,96.80
2018-08-16T11:36:42.953Z,96.20
2018-08-16T11:39:11.476Z,96.00
2018-08-16T11:41:40.015Z,95.40
2018-08-16T11:44:08.521Z,94.80
2018-08-16T11:46:37.143Z,94.80
2018-08-16T11:49:05.761Z,95.10
2018-08-16T11:51:34.321Z,94.90
2018-08-16T11:54:02.876Z,94.50
2018-08-16T11:56:31.459Z,93.30
2018-08-16T11:58:59.990Z,94.00
2018-08-16T12:01:28.550Z,93.80
2018-08-16T12:03:57.203Z,93.90
2018-08-16T12:06:25.797Z,93.50
2018-08-16T12:08:54.301Z,93.70
2018-08-16T12:11:22.848Z,93.50
2018-08-16T12:13:51.373Z,93.60
2018-08-16T12:16:19.938Z,92.50
2018-08-16T12:18:48.452Z,92.30
2018-08-16T12:21:16.986Z,92.30
2018-08-16T12:23:45.489Z,92.00
2018-08-16T12:26:14.022Z,91.70
2018-08-16T12:28:42.546Z,91.00
2018-08-16T12:31:11.130Z,91.20
2018-08-16T12:33:39.662Z,91.40
2018-08-16T12:36:08.197Z,91.30
2018-08-16T12:38:36.760Z,91.20
2018-08-16T12:41:05.609Z,91.50
2018-08-16T12:43:35.823Z,90.60
2018-08-16T12:46:04.503Z,91.20
2018-08-16T12:48:33.498Z,91.40
2018-08-16T12:51:02.053Z,90.70
2018-08-16T12:53:30.684Z,90.70
2018-08-16T12:55:59.178Z,90.80
2018-08-16T12:58:27.748Z,90.90
2018-08-16T13:00:56.300Z,90.90
2018-08-16T13:03:24.848Z,91.00
2018-08-16T13:05:53.356Z,90.90
2018-08-16T13:08:21.971Z,90.50
2018-08-16T13:10:50.517Z,90.40
2018-08-16T13:13:19.110Z,90.00
2018-08-16T13:15:47.637Z,90.30
2018-08-16T13:18:16.242Z,89.90
2018-08-16T13:20:44.750Z,90.00
2018-08-16T13:23:13.305Z,90.10
2018-08-16T13:25:41.854Z,89.40
2018-08-16T13:28:10.405Z,88.90
2018-08-16T13:30:38.934Z,88.60
2018-08-16T13:33:07.557Z,88.20
2018-08-16T13:35:36.070Z,88.10
2018-08-16T13:38:05.118Z,88.20
2018-08-16T13:40:33.637Z,89.70
2018-08-16T13:43:02.198Z,88.60
2018-08-16T13:45:30.713Z,89.00
2018-08-16T13:47:59.287Z,88.70
2018-08-16T13:50:27.822Z,87.90
2018-08-16T13:52:56.401Z,87.60
2018-08-16T13:55:24.948Z,88.60
2018-08-16T13:57:53.845Z,88.20
2018-08-16T14:00:22.356Z,86.60
2018-08-16T14:02:50.905Z,88.70
2018-08-16T14:05:19.448Z,90.10
2018-08-16T14:07:54.366Z,90.00
2018-08-16T14:10:23.065Z,90.10
2018-08-16T14:12:51.668Z,89.50
2018-08-16T14:15:20.176Z,88.80
2018-08-16T14:17:48.729Z,89.00
2018-08-16T14:20:17.287Z,90.00
2018-08-16T14:22:45.833Z,88.70
2018-08-16T14:25:14.341Z,88.80
2018-08-16T14:27:42.888Z,89.00
2018-08-16T14:30:11.437Z,89.00
2018-08-16T14:32:39.970Z,89.50
2018-08-16T14:35:08.494Z,90.00
2018-08-16T14:37:37.030Z,89.40
2018-08-16T14:40:05.921Z,88.80
2018-08-16T14:42:34.489Z,87.00
2018-08-16T14:45:04.227Z,87.60
2018-08-16T14:47:32.757Z,88.60
2018-08-16T14:50:01.292Z,88.50
2018-08-16T14:52:29.866Z,88.90
2018-08-16T14:54:58.477Z,88.40
2018-08-16T14:57:27.065Z,88.20
2018-08-16T14:59:55.584Z,89.40
2018-08-16T15:02:24.140Z,89.40
2018-08-16T15:04:52.655Z,90.00
2018-08-16T15:07:21.393Z,89.70
2018-08-16T15:09:49.910Z,88.90
2018-08-16T15:12:18.522Z,88.00
2018-08-16T15:14:47.762Z,87.80
2018-08-16T15:17:16.277Z,87.60
2018-08-16T15:19:44.823Z,88.80
2018-08-16T15:22:13.376Z,90.00
2018-08-16T15:24:42.590Z,89.40
2018-08-16T15:27:11.107Z,89.40
2018-08-16T15:29:39.640Z,88.40
2018-08-16T15:32:08.211Z,88.40
2018-08-16T15:34:36.737Z,88.80
2018-08-16T15:37:05.293Z,87.40
2018-08-16T15:39:33.868Z,87.30
2018-08-16T15:42:02.442Z,88.20
2018-08-16T15:44:31.014Z,87.80
2018-08-16T15:46:59.600Z,87.50
2018-08-16T15:49:29.699Z,87.50
2018-08-16T15:51:58.874Z,87.70
2018-08-16T15:54:28.300Z,89.20
2018-08-16T15:56:57.006Z,89.30
2018-08-16T15:59:25.639Z,89.60
2018-08-16T16:01:54.169Z,89.70
2018-08-16T16:04:22.725Z,88.50
2018-08-16T16:06:51.860Z,88.10
2018-08-16T16:09:20.425Z,88.10
2018-08-16T16:11:48.933Z,89.00
2018-08-16T16:14:17.491Z,88.40
2018-08-16T16:16:46.004Z,88.30
2018-08-16T16:19:14.559Z,88.60
2018-08-16T16:21:43.102Z,89.30
2018-08-16T16:24:11.641Z,88.30
2018-08-16T16:26:40.179Z,89.20
2018-08-16T16:29:08.722Z,88.70
2018-08-16T16:31:37.226Z,88.50
2018-08-16T16:34:05.854Z,88.90
2018-08-16T16:36:34.373Z,87.90
2018-08-16T16:39:03.026Z,87.90
2018-08-16T16:41:31.570Z,88.80
2018-08-16T16:44:00.113Z,89.20
2018-08-16T16:46:28.671Z,90.00
2018-08-16T16:48:57.217Z,90.20
2018-08-16T16:51:25.729Z,89.70
2018-08-16T16:53:54.292Z,89.50
2018-08-16T16:56:22.819Z,89.80
2018-08-16T16:58:51.585Z,90.20
2018-08-16T17:01:20.126Z,90.10
2018-08-16T17:03:48.845Z,90.00
2018-08-16T17:06:17.707Z,89.40
2018-08-16T17:08:46.282Z,90.00
2018-08-16T17:11:14.839Z,90.10
2018-08-16T17:13:43.381Z,90.00
2018-08-16T17:16:12.513Z,89.90
2018-08-16T17:18:41.097Z,90.30
2018-08-16T17:21:09.643Z,90.40
2018-08-16T17:23:38.196Z,89.90
2018-08-16T17:26:07.072Z,90.00
2018-08-16T17:28:35.606Z,89.90
2018-08-16T17:31:05.068Z,90.10
2018-08-16T17:33:33.624Z,91.80
2018-08-16T17:36:02.212Z,92.10
2018-08-16T17:38:30.757Z,92.50
2018-08-16T17:40:59.345Z,92.70
2018-08-16T17:43:27.821Z,92.60
2018-08-16T17:45:56.386Z,92.80
2018-08-16T17:48:24.891Z,93.90
2018-08-16T17:50:53.425Z,94.60
2018-08-16T17:53:22.150Z,96.00
2018-08-16T17:55:50.734Z,96.10
2018-08-16T17:58:19.282Z,96.20
2018-08-16T18:00:47.923Z,96.60
2018-08-16T18:03:16.425Z,97.40
2018-08-16T18:05:46.764Z,97.80
2018-08-16T18:08:15.298Z,98.10
2018-08-16T18:10:44.010Z,98.70
2018-08-16T18:13:12.518Z,98.80
2018-08-16T18:15:41.155Z,99.20
2018-08-16T18:18:09.684Z,99.50
2018-08-16T18:20:38.261Z,99.90
2018-08-16T18:23:06.773Z,99.90
2018-08-16T18:25:35.368Z,99.90
2018-08-16T18:28:04.021Z,99.90
2018-08-16T18:30:32.590Z,99.90
2018-08-16T18:33:01.140Z,99.90
2018-08-16T18:35:29.687Z,99.90
2018-08-16T18:37:58.229Z,99.90
2018-08-16T18:40:26.781Z,99.90
2018-08-16T18:42:55.290Z,99.90
2018-08-16T18:45:23.865Z,99.90
2018-08-16T18:47:52.470Z,99.90
2018-08-16T18:50:21.035Z,99.90
2018-08-16T18:52:49.569Z,99.90
2018-08-16T18:55:18.134Z,99.90
2018-08-16T18:57:46.669Z,99.90
2018-08-16T19:00:15.257Z,99.90
2018-08-16T19:02:43.801Z,99.90
2018-08-16T19:05:13.286Z,99.90
2018-08-16T19:07:41.777Z,99.90
2018-08-16T19:10:10.853Z,99.90
2018-08-16T19:12:39.509Z,99.90
2018-08-16T19:15:08.137Z,99.90
2018-08-16T19:17:36.665Z,99.90
2018-08-16T19:20:06.113Z,99.90
2018-08-16T19:22:34.669Z,99.90
2018-08-16T19:25:03.250Z,99.90
2018-08-16T19:27:31.837Z,99.90
2018-08-16T19:30:00.467Z,99.90
2018-08-16T19:32:28.938Z,99.90
2018-08-16T19:34:57.473Z,99.90
2018-08-16T19:37:25.981Z,99.90
2018-08-16T19:39:54.525Z,99.90
2018-08-16T19:42:23.021Z,99.90
2018-08-16T19:44:51.552Z,99.90
2018-08-16T19:47:20.070Z,99.90
2018-08-16T19:49:48.695Z,99.90
2018-08-16T19:52:17.199Z,99.90
2018-08-16T19:54:45.781Z,99.90
2018-08-16T19:57:14.574Z,99.90
2018-08-16T19:59:43.069Z,99.90
2018-08-16T20:02:11.842Z,99.90
2018-08-16T20:04:40.350Z,99.90
2018-08-16T20:07:08.991Z,99.90
2018-08-16T20:09:37.450Z,99.90
2018-08-16T20:12:06.030Z,99.90
2018-08-16T20:14:34.548Z,99.90
2018-08-16T20:17:03.183Z,99.90
2018-08-16T20:19:31.796Z,99.90
2018-08-16T20:22:00.401Z,99.90
2018-08-16T20:24:28.898Z,99.90
2018-08-16T20:26:57.456Z,99.90
2018-08-16T20:29:26.003Z,99.90
2018-08-16T20:31:54.565Z,99.90
2018-08-16T20:34:23.082Z,99.90
2018-08-16T20:36:53.625Z,99.90
2018-08-16T20:39:22.137Z,99.90
2018-08-16T20:41:50.707Z,99.90
2018-08-16T20:44:19.233Z,99.90
2018-08-16T20:46:47.782Z,99.90
2018-08-16T20:49:16.331Z,99.90
2018-08-16T20:51:44.918Z,99.90
2018-08-16T20:54:13.431Z,99.90
2018-08-16T20:56:41.978Z,99.90
2018-08-16T20:59:10.564Z,99.90
2018-08-16T21:01:39.133Z,99.90
2018-08-16T21:04:07.656Z,99.90
2018-08-16T21:06:36.290Z,99.90
2018-08-16T21:09:06.958Z,99.90
2018-08-16T21:11:35.681Z,99.90
2018-08-16T21:14:05.167Z,99.90
2018-08-16T21:16:33.712Z,99.90
2018-08-16T21:19:02.245Z,99.90
2018-08-16T21:21:30.943Z,99.90
2018-08-16T21:23:59.534Z,99.90
2018-08-16T21:26:28.765Z,99.90
2018-08-16T21:28:57.621Z,99.90
2018-08-16T21:31:26.223Z,99.90
2018-08-16T21:33:54.749Z,99.90
2018-08-16T21:36:23.306Z,99.90
2018-08-16T21:38:51.831Z,99.90
2018-08-16T21:41:20.383Z,99.90
2018-08-16T21:43:48.921Z,99.90
2018-08-16T21:46:17.481Z,99.90
2018-08-16T21:48:46.629Z,99.90
2018-08-16T21:51:15.201Z,99.90
2018-08-16T21:53:43.738Z,99.90
2018-08-16T21:56:12.329Z,99.90
2018-08-16T21:58:41.024Z,99.90
2018-08-16T22:01:09.654Z,99.90
2018-08-16T22:03:38.156Z,99.90
2018-08-16T22:06:07.923Z,99.90
2018-08-16T22:08:48.971Z,99.90
2018-08-16T22:11:17.556Z,99.90
2018-08-16T22:13:46.068Z,99.90
2018-08-16T22:16:14.625Z,99.90
2018-08-16T22:18:43.161Z,99.90
2018-08-16T22:21:12.136Z,99.90
2018-08-16T22:23:40.653Z,99.90
2018-08-16T22:26:10.200Z,99.90
2018-08-16T22:28:38.662Z,99.90
2018-08-16T22:31:07.201Z,99.90
2018-08-16T22:33:35.757Z,99.90
2018-08-16T22:36:04.265Z,99.90
2018-08-16T22:38:32.830Z,99.90
2018-08-16T22:41:01.339Z,99.90
2018-08-16T22:43:29.875Z,99.90
2018-08-16T22:45:58.441Z,99.90
2018-08-16T22:48:26.969Z,99.90
2018-08-16T22:50:55.466Z,99.90
2018-08-16T22:53:24.002Z,99.90
2018-08-16T22:55:52.546Z,99.90
2018-08-16T22:58:21.110Z,99.90
2018-08-16T23:00:49.709Z,99.90
2018-08-16T23:03:18.265Z,99.90
2018-08-16T23:05:46.767Z,99.90
2018-08-16T23:08:15.306Z,99.90
2018-08-16T23:10:43.841Z,99.90
2018-08-16T23:13:12.411Z,99.90
2018-08-16T23:15:40.952Z,99.90
2018-08-16T23:18:09.525Z,99.90
2018-08-16T23:20:38.052Z,99.90
2018-08-16T23:23:07.146Z,99.90
2018-08-16T23:25:35.690Z,99.90
2018-08-16T23:28:04.325Z,99.90
2018-08-16T23:30:32.822Z,99.90
2018-08-16T23:33:01.397Z,99.90
2018-08-16T23:35:29.987Z,99.90
2018-08-16T23:37:58.580Z,99.90
2018-08-16T23:40:27.086Z,99.90
2018-08-16T23:42:55.647Z,99.90
2018-08-16T23:45:24.178Z,99.90
2018-08-16T23:48:04.063Z,99.90
2018-08-16T23:50:32.573Z,99.90
2018-08-16T23:53:01.124Z,99.90
2018-08-16T23:55:29.632Z,99.90
2018-08-16T23:57:58.235Z,99.90
